Time;durP1;ratioP1;P1;durP2;ratioP2;P2;SDS_P1;SDS_P2;PMS_P1;PMS_P2;Temp;Humidity;BMP_temperature;BMP_pressure;BME280_temperature;BME280_humidity;BME280_pressure;Samples;Min_cycle;Max_cycle;Signal;HPM_P1;HPM_P2
2022/01/16 00:04:15;;;;;;;;;46.00;40.00;;;;;-147.17;100.00;50466.06;5022884;28;52319;-75
2022/01/16 00:06:43;;;;;;;;;56.25;43.50;;;;;-147.17;100.00;50487.72;5025543;28;51449;-75
2022/01/16 00:09:09;;;;;;;;;50.25;44.25;;;;;-147.17;100.00;50513.31;5017722;28;52106;-76
2022/01/16 00:11:35;;;;;;;;;62.50;51.00;;;;;-147.17;100.00;50483.78;5024113;28;51208;-76
2022/01/16 00:14:02;;;;;;;;;47.25;42.75;;;;;-147.17;100.00;50489.69;5025486;28;51206;-76
2022/01/16 00:16:28;;;;;;;;;58.50;46.25;;;;;-147.17;100.00;50483.78;5025661;28;51235;-76
2022/01/16 00:18:54;;;;;;;;;59.50;45.00;;;;;-147.17;100.00;50473.94;5022655;28;51050;-75
2022/01/16 00:21:22;;;;;;;;;54.75;45.00;;;;;-147.17;100.00;50507.41;5020559;28;51102;-73
2022/01/16 00:23:48;;;;;;;;;59.75;46.00;;;;;-147.17;100.00;50491.66;5017222;28;51312;-74
2022/01/16 00:26:13;;;;;;;;;56.75;47.00;;;;;-147.17;100.00;50501.50;5022598;28;50967;-73
2022/01/16 00:28:39;;;;;;;;;58.50;44.50;;;;;-147.17;100.00;50475.91;5022450;28;51527;-74
2022/01/16 00:31:04;;;;;;;;;60.00;48.25;;;;;-147.17;100.00;50458.19;5021924;28;51016;-71
2022/01/16 00:33:30;;;;;;;;;48.75;41.00;;;;;-147.17;100.00;50507.41;5022338;28;52462;-72
2022/01/16 00:35:55;;;;;;;;;47.25;41.00;;;;;-147.17;100.00;50481.81;5019940;28;51338;-73
2022/01/16 00:38:20;;;;;;;;;55.50;46.75;;;;;-147.17;100.00;50501.50;5023017;28;52485;-72
2022/01/16 00:40:46;;;;;;;;;52.00;43.50;;;;;-147.17;100.00;50493.63;5017621;28;51283;-72
2022/01/16 00:43:11;;;;;;;;;56.25;46.00;;;;;-147.17;100.00;50499.53;5020619;28;51671;-77
2022/01/16 00:45:37;;;;;;;;;52.75;44.75;;;;;-147.17;100.00;50473.94;5025500;28;51165;-78
2022/01/16 00:48:04;;;;;;;;;52.50;42.50;;;;;-147.17;100.00;50477.88;5022640;28;51816;-78
2022/01/16 00:50:31;;;;;;;;;44.75;40.75;;;;;-147.17;100.00;50499.53;5020998;28;51268;-78
2022/01/16 00:52:57;;;;;;;;;58.75;46.25;;;;;-147.17;100.00;50501.50;5024916;28;51004;-77
2022/01/16 00:55:23;;;;;;;;;49.50;41.25;;;;;-147.17;100.00;50515.28;5024516;28;51424;-78
2022/01/16 00:57:48;;;;;;;;;56.75;47.25;;;;;-147.17;100.00;50509.38;5021851;28;50850;-77
2022/01/16 01:00:14;;;;;;;;;45.00;40.00;;;;;-147.17;100.00;50497.56;5018997;28;51158;-73
2022/01/16 01:02:39;;;;;;;;;52.25;45.00;;;;;-147.17;100.00;50513.31;5016684;28;50918;-74
2022/01/16 01:05:05;;;;;;;;;50.75;42.50;;;;;-147.17;100.00;50513.31;5017622;28;51474;-76
2022/01/16 01:07:31;;;;;;;;;57.25;45.50;;;;;-147.17;100.00;50481.81;5022975;28;52684;-77
2022/01/16 01:09:56;;;;;;;;;60.50;45.50;;;;;-147.17;100.00;50505.44;5022007;28;51427;-76
2022/01/16 01:12:29;;;;;;;;;54.50;44.00;;;;;-147.17;100.00;50475.91;5025885;28;51086;-79
2022/01/16 01:15:07;;;;;;;;;51.25;44.00;;;;;-147.17;100.00;50540.88;5021658;28;51308;-75
2022/01/16 01:17:37;;;;;;;;;56.00;46.25;;;;;-147.17;100.00;50501.50;5018063;28;52656;-76
2022/01/16 01:20:04;;;;;;;;;48.00;41.25;;;;;-147.17;100.00;50501.50;5020028;28;51147;-74
2022/01/16 01:22:29;;;;;;;;;54.75;43.50;;;;;-147.17;100.00;50483.78;5025196;28;51394;-73
2022/01/16 01:24:55;;;;;;;;;46.00;38.75;;;;;-147.17;100.00;50481.81;5022202;28;51216;-72
2022/01/16 01:27:29;;;;;;;;;43.75;38.25;;;;;-147.17;100.00;50497.56;5022879;28;51288;-75
2022/01/16 01:30:01;;;;;;;;;46.50;41.75;;;;;-147.17;100.00;50515.28;5022919;28;51259;-75
2022/01/16 01:32:27;;;;;;;;;53.25;42.50;;;;;-147.17;100.00;50511.34;5027375;28;51292;-77
2022/01/16 01:34:52;;;;;;;;;46.50;39.00;;;;;-147.17;100.00;50521.19;5021244;28;51149;-75
2022/01/16 01:37:17;;;;;;;;;54.75;42.25;;;;;-147.17;100.00;50534.97;5025504;28;51071;-77
2022/01/16 01:39:43;;;;;;;;;61.50;50.00;;;;;-147.17;100.00;50519.22;5031368;28;51170;-79
2022/01/16 01:42:11;;;;;;;;;41.00;37.25;;;;;-147.17;100.00;50501.50;5025774;28;51282;-75
2022/01/16 01:52:52;;;;;;;;;50.50;44.50;;;;;-147.17;100.00;50509.38;5026850;28;50967;-77
2022/01/16 01:55:18;;;;;;;;;53.75;42.75;;;;;-147.17;100.00;50527.09;5022870;28;51249;-77
2022/01/16 01:57:44;;;;;;;;;51.25;43.25;;;;;-147.17;100.00;50505.44;5027034;28;51916;-74
2022/01/16 02:00:10;;;;;;;;;47.75;38.25;;;;;-147.17;100.00;50499.53;5031134;28;51582;-76
2022/01/16 02:02:51;;;;;;;;;52.50;43.50;;;;;-147.17;100.00;50499.53;5022306;28;51101;-75
2022/01/16 02:05:17;;;;;;;;;52.75;42.75;;;;;-147.17;100.00;50525.13;5027064;28;51199;-77
2022/01/16 02:07:42;;;;;;;;;52.00;44.25;;;;;-147.17;100.00;50489.69;5033652;28;52024;-78
2022/01/16 02:10:08;;;;;;;;;57.25;45.50;;;;;-147.17;100.00;50495.59;5025736;28;51344;-79
2022/01/16 02:12:37;;;;;;;;;56.25;42.25;;;;;-147.17;100.00;50491.66;5026906;28;51110;-77
2022/01/16 02:15:28;;;;;;;;;63.00;50.50;;;;;-147.17;100.00;50481.81;5026108;28;51012;-78
2022/01/16 02:28:00;;;;;;;;;46.00;38.25;;;;;-147.17;100.00;50491.66;5023511;28;51225;-75
2022/01/16 02:31:59;;;;;;;;;60.25;45.75;;;;;-147.17;100.00;50481.81;5029536;28;51308;-78
2022/01/16 02:36:59;;;;;;;;;56.25;46.25;;;;;-147.17;100.00;50491.66;5026906;28;51316;-77
2022/01/16 02:39:25;;;;;;;;;62.00;48.25;;;;;-147.17;100.00;50468.03;5027655;28;52022;-77
2022/01/16 02:41:53;;;;;;;;;53.50;46.50;;;;;-147.17;100.00;50485.75;5030197;28;51294;-77
2022/01/16 02:46:44;;;;;;;;;60.75;45.25;;;;;-147.17;100.00;50489.69;5032070;28;50973;-77
2022/01/16 02:49:25;;;;;;;;;61.00;50.25;;;;;-147.17;100.00;50499.53;5029915;28;51225;-78
2022/01/16 02:51:53;;;;;;;;;51.25;43.25;;;;;-147.17;100.00;50477.88;5028942;28;51086;-78
2022/01/16 02:54:19;;;;;;;;;54.75;44.00;;;;;-147.17;100.00;50501.50;5026436;28;51120;-74
2022/01/16 02:56:45;;;;;;;;;58.25;46.50;;;;;-147.17;100.00;50475.91;5021370;28;51051;-73
2022/01/16 02:59:12;;;;;;;;;60.50;49.75;;;;;-147.17;100.00;50462.13;5022359;28;51736;-78
2022/01/16 03:01:38;;;;;;;;;56.00;46.50;;;;;-147.17;100.00;50477.88;5024522;28;51187;-73
2022/01/16 03:04:04;;;;;;;;;59.75;48.75;;;;;-147.17;100.00;50466.06;5032791;28;50990;-72
2022/01/16 03:06:29;;;;;;;;;59.50;46.50;;;;;-147.17;100.00;50438.50;5022530;28;51020;-72
2022/01/16 03:08:54;;;;;;;;;61.50;49.25;;;;;-147.17;100.00;50464.09;5022393;28;51774;-72
2022/01/16 03:11:25;;;;;;;;;62.25;46.75;;;;;-147.17;100.00;50454.25;5024921;28;51388;-72
2022/01/16 03:13:50;;;;;;;;;61.75;44.75;;;;;-147.17;100.00;50489.69;5022202;28;51207;-72
2022/01/16 03:16:18;;;;;;;;;58.75;46.50;;;;;-147.17;100.00;50473.94;5021171;28;51130;-72
2022/01/16 03:24:12;;;;;;;;;61.50;46.75;;;;;-147.17;100.00;50450.31;5030813;28;51191;-72
2022/01/16 03:26:38;;;;;;;;;52.00;44.50;;;;;-147.17;100.00;50462.13;5026993;28;50959;-74
2022/01/16 03:29:03;;;;;;;;;55.75;45.75;;;;;-147.17;100.00;50462.13;5023735;28;51759;-73
2022/01/16 03:31:28;;;;;;;;;49.50;45.50;;;;;-147.17;100.00;50438.50;5027105;28;51395;-73
2022/01/16 03:33:54;;;;;;;;;55.25;47.00;;;;;-147.17;100.00;50505.44;5020998;28;51394;-72
2022/01/16 03:36:20;;;;;;;;;59.75;46.00;;;;;-147.17;100.00;50428.66;5025445;28;51265;-71
2022/01/16 03:38:45;;;;;;;;;54.50;44.00;;;;;-147.17;100.00;50466.06;5012341;28;51733;-72
2022/01/16 03:41:11;;;;;;;;;54.00;39.75;;;;;-147.17;100.00;50448.34;5029427;28;51265;-72
2022/01/16 03:43:36;;;;;;;;;59.50;48.50;;;;;-147.17;100.00;50477.88;5018954;28;51335;-72
2022/01/16 03:46:03;;;;;;;;;53.00;41.75;;;;;-147.17;100.00;50462.13;5029107;28;51089;-72
2022/01/16 03:48:29;;;;;;;;;54.25;46.25;;;;;-147.17;100.00;50471.97;5012848;28;50976;-71
2022/01/16 03:50:54;;;;;;;;;52.25;44.50;;;;;-147.17;100.00;50460.16;5014393;28;51114;-71
2022/01/16 03:53:20;;;;;;;;;54.75;45.00;;;;;-147.17;100.00;50470.00;5017649;28;51373;-72
2022/01/16 03:55:45;;;;;;;;;55.75;46.25;;;;;-147.17;100.00;50450.31;5020586;28;51108;-72
2022/01/16 03:58:11;;;;;;;;;59.75;46.25;;;;;-147.17;100.00;50444.41;5019015;28;51613;-73
2022/01/16 04:00:36;;;;;;;;;59.75;46.75;;;;;-147.17;100.00;50473.94;5029064;28;50999;-72
2022/01/16 04:03:02;;;;;;;;;54.75;44.00;;;;;-147.17;100.00;50470.00;5012862;28;51318;-74
2022/01/16 04:05:27;;;;;;;;;58.50;43.50;;;;;-147.17;100.00;50470.00;5029490;28;51007;-70
2022/01/16 04:07:53;;;;;;;;;56.25;47.00;;;;;-147.17;100.00;50458.19;5031599;28;51609;-72
2022/01/16 04:10:21;;;;;;;;;62.25;47.25;;;;;-147.17;100.00;50481.81;5032566;28;51003;-72
2022/01/16 04:12:47;;;;;;;;;59.25;48.25;;;;;-147.17;100.00;50470.00;5030622;28;51124;-71
2022/01/16 04:17:38;;;;;;;;;46.25;40.75;;;;;-147.17;100.00;50473.94;5023189;28;51119;-72
2022/01/16 04:20:05;;;;;;;;;57.00;44.75;;;;;-147.17;100.00;50475.91;5026453;28;51171;-72
2022/01/16 04:22:30;;;;;;;;;57.75;46.25;;;;;-147.17;100.00;50438.50;5032408;28;51140;-71
2022/01/16 04:24:56;;;;;;;;;63.25;49.00;;;;;-147.17;100.00;50432.59;5014043;28;51250;-71
2022/01/16 04:27:21;;;;;;;;;57.75;41.50;;;;;-147.17;100.00;50432.59;5023567;28;51899;-72
2022/01/16 04:29:46;;;;;;;;;57.50;47.00;;;;;-147.17;100.00;50456.22;5025744;28;51087;-72
2022/01/16 04:32:12;;;;;;;;;61.50;45.50;;;;;-147.17;100.00;50450.31;5020006;28;51078;-71
2022/01/16 04:34:38;;;;;;;;;47.75;42.25;;;;;-147.17;100.00;50462.13;5018562;28;51237;-72
2022/01/16 04:37:04;;;;;;;;;51.50;43.25;;;;;-147.17;100.00;50473.94;5012156;28;51046;-72
2022/01/16 04:39:35;;;;;;;;;52.00;43.75;;;;;-147.17;100.00;50446.38;5027558;28;51057;-72
2022/01/16 04:44:47;;;;;;;;;67.00;48.50;;;;;-147.17;100.00;50430.63;5024354;28;51012;-72
2022/01/16 04:47:12;;;;;;;;;54.50;45.50;;;;;-147.17;100.00;50432.59;5022348;28;51006;-72
2022/01/16 04:49:37;;;;;;;;;57.25;44.75;;;;;-147.17;100.00;50440.47;5018045;28;51123;-71
2022/01/16 04:52:03;;;;;;;;;56.50;45.75;;;;;-147.17;100.00;50458.19;5032375;28;51537;-72
2022/01/16 04:54:29;;;;;;;;;63.50;47.75;;;;;-147.17;100.00;50442.44;5027322;28;51097;-72
2022/01/16 04:56:54;;;;;;;;;55.75;45.75;;;;;-147.17;100.00;50395.19;5035414;28;51077;-72
2022/01/16 04:59:20;;;;;;;;;53.75;43.25;;;;;-147.17;100.00;50446.38;5027568;28;51130;-72
2022/01/16 05:01:46;;;;;;;;;56.75;44.25;;;;;-147.17;100.00;50444.41;5015399;28;51233;-73
2022/01/16 05:04:12;;;;;;;;;61.00;49.00;;;;;-147.17;100.00;50448.34;5026268;28;51328;-72
2022/01/16 05:06:37;;;;;;;;;63.75;51.25;;;;;-147.17;100.00;50438.50;5024356;28;51830;-72
2022/01/16 05:09:03;;;;;;;;;56.75;44.50;;;;;-147.17;100.00;50452.28;5019571;28;51055;-72
2022/01/16 05:11:28;;;;;;;;;49.00;44.00;;;;;-147.17;100.00;50444.41;5035621;28;50904;-72
2022/01/16 05:16:40;;;;;;;;;62.25;49.00;;;;;-147.17;100.00;50434.56;5017005;28;51954;-72
2022/01/16 05:19:14;;;;;;;;;40.00;35.25;;;;;-147.17;100.00;50458.19;5034571;28;51106;-72
2022/01/16 05:21:42;;;;;;;;;52.50;43.50;;;;;-147.17;100.00;50424.72;5020401;28;51096;-72
2022/01/16 05:24:10;;;;;;;;;49.75;45.25;;;;;-147.17;100.00;50426.69;5023969;28;51943;-71
2022/01/16 05:26:42;;;;;;;;;49.25;41.50;;;;;-147.17;100.00;50448.34;5023622;28;51886;-70
2022/01/16 05:29:09;;;;;;;;;58.00;44.25;;;;;-147.17;100.00;50454.25;5026054;28;50997;-70
2022/01/16 05:31:34;;;;;;;;;54.25;46.00;;;;;-147.17;100.00;50436.53;5032991;28;51299;-71
2022/01/16 05:34:00;;;;;;;;;46.00;41.00;;;;;-147.17;100.00;50434.56;5035153;28;50963;-70
2022/01/16 05:36:25;;;;;;;;;52.00;43.75;;;;;-147.17;100.00;50434.56;5034594;28;52573;-70
2022/01/16 05:38:53;;;;;;;;;56.75;46.25;;;;;-147.17;100.00;50466.06;5034472;28;51040;-70
2022/01/16 05:41:18;;;;;;;;;53.00;39.75;;;;;-147.17;100.00;50430.63;5029491;28;51182;-71
2022/01/16 05:43:48;;;;;;;;;50.75;44.50;;;;;-147.17;100.00;50448.34;5035237;28;51256;-70
2022/01/16 05:46:14;;;;;;;;;51.00;40.50;;;;;-147.17;100.00;50430.63;5028673;28;51220;-71
2022/01/16 05:48:39;;;;;;;;;47.50;41.25;;;;;-147.17;100.00;50410.94;5020507;28;51259;-70
2022/01/16 05:51:05;;;;;;;;;56.00;41.00;;;;;-147.17;100.00;50395.19;5034741;28;51220;-70
2022/01/16 05:53:30;;;;;;;;;55.50;43.50;;;;;-147.17;100.00;50412.91;5029403;28;51093;-71
2022/01/16 05:55:55;;;;;;;;;53.75;44.50;;;;;-147.17;100.00;50407.00;5014873;28;51831;-72
2022/01/16 05:58:21;;;;;;;;;39.50;37.00;;;;;-147.17;100.00;50440.47;5024823;28;50950;-71
2022/01/16 06:00:48;;;;;;;;;32.25;30.75;;;;;-147.17;100.00;50438.50;5014931;28;50845;-71
2022/01/16 06:03:13;;;;;;;;;24.00;21.00;;;;;-147.17;100.00;50430.63;5014869;28;50927;-71
2022/01/16 06:05:38;;;;;;;;;43.50;39.50;;;;;-147.17;100.00;50424.72;5019593;28;51876;-71
2022/01/16 06:08:11;;;;;;;;;39.25;35.75;;;;;-147.17;100.00;50432.59;5033008;28;51111;-72
2022/01/16 06:10:36;;;;;;;;;41.25;37.25;;;;;-147.17;100.00;50422.75;5014683;28;51037;-70
2022/01/16 06:13:04;;;;;;;;;43.25;40.25;;;;;-147.17;100.00;50407.00;5017198;28;51171;-70
2022/01/16 06:15:29;;;;;;;;;45.75;38.00;;;;;-147.17;100.00;50440.47;5026294;28;52881;-72
2022/01/16 06:17:55;;;;;;;;;37.25;35.25;;;;;-147.17;100.00;50401.09;5022861;28;51169;-71
2022/01/16 06:20:20;;;;;;;;;36.75;35.50;;;;;-147.17;100.00;50426.69;5014721;28;50975;-71
2022/01/16 06:22:46;;;;;;;;;32.25;29.50;;;;;-147.17;100.00;50412.91;5013158;28;51306;-71
2022/01/16 06:25:13;;;;;;;;;42.50;38.50;;;;;-147.17;100.00;50414.88;5026770;28;51870;-71
2022/01/16 06:27:39;;;;;;;;;42.50;34.50;;;;;-147.17;100.00;50403.06;5019604;28;51178;-71
2022/01/16 06:30:07;;;;;;;;;33.25;31.50;;;;;-147.17;100.00;50414.88;5032336;28;51054;-71
2022/01/16 06:32:32;;;;;;;;;33.50;31.00;;;;;-147.17;100.00;50399.13;5034587;28;51200;-71
2022/01/16 06:34:58;;;;;;;;;36.00;30.00;;;;;-147.17;100.00;50442.44;5032159;28;51210;-71
2022/01/16 06:37:23;;;;;;;;;35.25;31.00;;;;;-147.17;100.00;50422.75;5014248;28;51080;-74
2022/01/16 06:39:49;;;;;;;;;40.75;33.75;;;;;-147.17;100.00;50418.81;5013810;28;51022;-71
2022/01/16 06:42:14;;;;;;;;;41.00;35.50;;;;;-147.17;100.00;50407.00;5014345;28;50937;-72
2022/01/16 06:44:39;;;;;;;;;45.25;36.00;;;;;-147.17;100.00;50412.91;5028314;28;51981;-71
2022/01/16 06:47:05;;;;;;;;;29.75;28.00;;;;;-147.17;100.00;50426.69;5016528;28;51289;-71
2022/01/16 06:49:30;;;;;;;;;33.00;32.00;;;;;-147.17;100.00;50418.81;5013983;28;51152;-71
2022/01/16 06:51:55;;;;;;;;;39.25;33.50;;;;;-147.17;100.00;50430.63;5014263;28;51269;-71
2022/01/16 06:54:21;;;;;;;;;29.00;25.25;;;;;-147.17;100.00;50399.13;5023425;28;51717;-72
2022/01/16 06:56:46;;;;;;;;;38.00;31.75;;;;;-147.17;100.00;50403.06;5017853;28;51232;-71
2022/01/16 06:59:12;;;;;;;;;26.00;22.75;;;;;-147.17;100.00;50412.91;5014011;28;52391;-71
2022/01/16 07:01:37;;;;;;;;;33.75;29.50;;;;;-147.17;100.00;50422.75;5014681;28;51086;-70
2022/01/16 07:04:02;;;;;;;;;32.75;26.00;;;;;-147.17;100.00;50399.13;5022803;28;52202;-70
2022/01/16 07:06:28;;;;;;;;;33.75;30.00;;;;;-147.17;100.00;50399.13;5033760;28;51018;-71
2022/01/16 07:08:53;;;;;;;;;33.75;30.00;;;;;-147.17;100.00;50405.03;5014007;28;51342;-71
2022/01/16 07:11:18;;;;;;;;;26.50;25.00;;;;;-147.17;100.00;50387.31;5014757;28;51472;-71
2022/01/16 07:13:44;;;;;;;;;24.50;24.25;;;;;-147.17;100.00;50383.38;5013031;28;51181;-71
2022/01/16 07:16:10;;;;;;;;;28.25;26.75;;;;;-147.17;100.00;50442.44;5013897;28;51156;-72
2022/01/16 07:18:35;;;;;;;;;29.75;27.25;;;;;-147.17;100.00;50395.19;5025864;28;51665;-71
2022/01/16 07:21:01;;;;;;;;;25.75;20.75;;;;;-147.17;100.00;50430.63;5014625;28;51372;-70
2022/01/16 07:23:26;;;;;;;;;29.75;28.50;;;;;-147.17;100.00;50387.31;5013348;28;52680;-70
2022/01/16 07:25:55;;;;;;;;;34.75;27.25;;;;;-147.17;100.00;50389.28;5033629;28;50955;-70
2022/01/16 07:28:20;;;;;;;;;33.25;31.00;;;;;-147.17;100.00;50420.78;5030808;28;51144;-71
2022/01/16 07:30:47;;;;;;;;;24.25;20.50;;;;;-147.17;100.00;50403.06;5014718;28;51350;-71
2022/01/16 07:33:12;;;;;;;;;27.75;22.75;;;;;-147.17;100.00;50391.25;5014370;28;52806;-70
2022/01/16 07:35:38;;;;;;;;;23.25;19.75;;;;;-147.17;100.00;50395.19;5024075;28;51135;-71
2022/01/16 07:38:06;;;;;;;;;27.00;24.00;;;;;-147.17;100.00;50395.19;5013900;28;51496;-71
2022/01/16 07:40:31;;;;;;;;;29.75;24.50;;;;;-147.17;100.00;50403.06;5027718;28;50993;-71
2022/01/16 07:42:58;;;;;;;;;29.50;25.00;;;;;-147.17;100.00;50387.31;5012724;28;51772;-71
2022/01/16 07:45:23;;;;;;;;;29.00;25.50;;;;;-147.17;100.00;50407.00;5031127;28;50864;-71
2022/01/16 07:47:49;;;;;;;;;31.00;27.75;;;;;-147.17;100.00;50448.34;5022360;28;51187;-72
2022/01/16 07:50:16;;;;;;;;;30.50;27.75;;;;;-147.17;100.00;50405.03;5030434;28;50818;-71
2022/01/16 07:52:41;;;;;;;;;27.50;27.00;;;;;-147.17;100.00;50387.31;5029359;28;52012;-71
2022/01/16 07:55:08;;;;;;;;;30.25;26.75;;;;;-147.17;100.00;50401.09;5015311;28;51146;-72
2022/01/16 07:57:34;;;;;;;;;28.50;24.25;;;;;-147.17;100.00;50401.09;5028769;28;51284;-71
2022/01/16 07:59:59;;;;;;;;;32.75;24.00;;;;;-147.17;100.00;50401.09;5022248;28;51502;-71
2022/01/16 08:02:25;;;;;;;;;29.00;25.50;;;;;-147.17;100.00;50399.13;5013957;28;51849;-69
2022/01/16 08:04:50;;;;;;;;;31.00;23.50;;;;;-147.17;100.00;50385.34;5020962;28;51036;-70
2022/01/16 08:07:15;;;;;;;;;29.75;25.75;;;;;-147.17;100.00;50387.31;5025118;28;51042;-70
2022/01/16 08:09:41;;;;;;;;;29.75;22.50;;;;;-147.17;100.00;50383.38;5027421;28;50885;-70
2022/01/16 08:12:08;;;;;;;;;27.75;24.75;;;;;-147.17;100.00;50379.44;5013239;28;52843;-70
2022/01/16 08:14:34;;;;;;;;;32.50;28.00;;;;;-147.17;100.00;50377.47;5023075;28;51433;-73
2022/01/16 08:17:00;;;;;;;;;29.25;25.50;;;;;-147.17;100.00;50385.34;5018970;28;51115;-71
2022/01/16 08:19:27;;;;;;;;;29.00;26.25;;;;;-147.17;100.00;50357.78;5022544;28;51308;-72
2022/01/16 08:21:53;;;;;;;;;26.00;24.00;;;;;-147.17;100.00;50395.19;5025609;28;51920;-70
2022/01/16 08:24:19;;;;;;;;;30.75;26.50;;;;;-147.17;100.00;50414.88;5028032;28;51026;-71
2022/01/16 08:26:45;;;;;;;;;30.00;25.00;;;;;-147.17;100.00;50379.44;5023580;28;51420;-71
2022/01/16 08:29:10;;;;;;;;;28.75;25.75;;;;;-147.17;100.00;50393.22;5021524;28;51103;-69
2022/01/16 08:31:36;;;;;;;;;26.25;20.50;;;;;-147.17;100.00;50379.44;5013024;28;51087;-71
2022/01/16 08:34:01;;;;;;;;;31.50;29.25;;;;;-147.17;100.00;50405.03;5017336;28;51173;-70
2022/01/16 08:36:27;;;;;;;;;26.75;24.00;;;;;-147.17;100.00;50381.41;5019857;28;51371;-69
2022/01/16 08:38:54;;;;;;;;;28.50;28.00;;;;;-147.17;100.00;50403.06;5012485;28;50918;-70
2022/01/16 08:41:20;;;;;;;;;30.00;27.25;;;;;-147.17;100.00;50391.25;5026757;28;51243;-70
2022/01/16 08:43:46;;;;;;;;;28.25;26.75;;;;;-147.17;100.00;50383.38;5021205;28;51217;-70
2022/01/16 08:46:13;;;;;;;;;34.00;28.50;;;;;-147.17;100.00;50399.13;5015316;28;51156;-70
2022/01/16 08:48:39;;;;;;;;;32.00;29.00;;;;;-147.17;100.00;50361.72;5032385;28;51229;-69
2022/01/16 08:51:04;;;;;;;;;31.75;29.50;;;;;-147.17;100.00;50412.91;5023848;28;52712;-71
2022/01/16 08:53:30;;;;;;;;;29.75;25.00;;;;;-147.17;100.00;50391.25;5024319;28;51256;-70
2022/01/16 08:55:55;;;;;;;;;28.25;24.00;;;;;-147.17;100.00;50414.88;5021451;28;51054;-68
2022/01/16 08:58:21;;;;;;;;;30.00;27.50;;;;;-147.17;100.00;50414.88;5013466;28;52457;-70
2022/01/16 09:00:48;;;;;;;;;28.75;25.25;;;;;-147.17;100.00;50387.31;5025989;28;51044;-69
2022/01/16 09:03:16;;;;;;;;;33.25;29.25;;;;;-147.17;100.00;50403.06;5026690;28;51236;-70
2022/01/16 09:05:41;;;;;;;;;31.75;27.75;;;;;-147.17;100.00;50412.91;5023538;28;51149;-69
2022/01/16 09:08:06;;;;;;;;;34.50;32.75;;;;;-147.17;100.00;50403.06;5025780;28;51315;-69
2022/01/16 09:10:32;;;;;;;;;26.75;22.00;;;;;-147.17;100.00;50397.16;5025353;28;51784;-68
2022/01/16 09:12:58;;;;;;;;;28.75;25.25;;;;;-147.17;100.00;50391.25;5016387;28;52701;-69
2022/01/16 09:15:23;;;;;;;;;31.50;27.50;;;;;-147.17;100.00;50371.56;5012499;28;51323;-69
2022/01/16 09:17:49;;;;;;;;;23.75;20.50;;;;;-147.17;100.00;50375.50;5019594;28;51335;-70
2022/01/16 09:20:14;;;;;;;;;31.00;25.75;;;;;-147.17;100.00;50399.13;5009861;28;51750;-69
2022/01/16 09:22:44;;;;;;;;;28.75;28.00;;;;;-147.17;100.00;50391.25;5011946;28;51229;-69
2022/01/16 09:25:10;;;;;;;;;26.50;23.00;;;;;-147.17;100.00;50399.13;5011683;28;50931;-70
2022/01/16 09:27:36;;;;;;;;;33.25;31.00;;;;;-147.17;100.00;50349.91;5011773;28;50978;-69
2022/01/16 09:30:04;;;;;;;;;25.50;24.50;;;;;-147.17;100.00;50391.25;5021316;28;52002;-69
2022/01/16 09:32:31;;;;;;;;;36.25;29.00;;;;;-147.17;100.00;50349.91;5011168;28;51088;-65
2022/01/16 09:34:56;;;;;;;;;27.50;24.25;;;;;-147.17;100.00;50405.03;5029194;28;50915;-65
2022/01/16 09:37:22;;;;;;;;;28.50;25.75;;;;;-147.17;100.00;50405.03;5012628;28;51275;-69
2022/01/16 09:39:47;;;;;;;;;41.25;30.00;;;;;-147.17;100.00;50407.00;5023361;28;53014;-66
2022/01/16 09:42:12;;;;;;;;;24.25;22.75;;;;;-147.17;100.00;50383.38;5015986;28;51136;-67
2022/01/16 09:44:40;;;;;;;;;23.25;22.50;;;;;-147.17;100.00;50407.00;5015672;28;51030;-67
2022/01/16 09:47:06;;;;;;;;;25.25;24.50;;;;;-147.17;100.00;50395.19;5031621;28;51047;-65
2022/01/16 09:49:32;;;;;;;;;26.25;24.00;;;;;-147.17;100.00;50422.75;5032506;28;51745;-66
2022/01/16 09:51:58;;;;;;;;;26.50;24.50;;;;;-147.17;100.00;50440.47;5026402;28;51049;-67
2022/01/16 09:54:24;;;;;;;;;21.25;17.75;;;;;-147.17;100.00;50468.03;5023410;28;51320;-71
2022/01/16 09:56:51;;;;;;;;;28.25;27.25;;;;;-147.17;100.00;50460.16;5028115;28;53591;-78
2022/01/16 09:59:17;;;;;;;;;29.50;24.50;;;;;-147.17;100.00;50436.53;5019192;28;53063;-78
2022/01/16 10:01:43;;;;;;;;;30.75;25.50;;;;;-147.17;100.00;50432.59;5024938;28;51083;-72
2022/01/16 10:04:38;;;;;;;;;27.25;23.00;;;;;-147.17;100.00;50456.22;5022395;28;51184;-72
2022/01/16 10:07:12;;;;;;;;;26.00;22.00;;;;;-147.17;100.00;50438.50;5018314;28;51004;-72
2022/01/16 10:09:39;;;;;;;;;25.00;23.25;;;;;-147.17;100.00;50422.75;5017809;28;51181;-72
2022/01/16 10:12:15;;;;;;;;;23.75;20.50;;;;;-147.17;100.00;50412.91;5001095;28;51421;-72
2022/01/16 10:14:49;;;;;;;;;27.25;26.00;;;;;-147.17;100.00;50422.75;5018143;28;51161;-71
2022/01/16 10:17:22;;;;;;;;;25.50;22.75;;;;;-147.17;100.00;50438.50;5029021;28;51100;-72
2022/01/16 10:20:17;;;;;;;;;21.00;21.00;;;;;-147.17;100.00;50446.38;5019414;28;51893;-71
2022/01/16 10:22:48;;;;;;;;;28.00;23.00;;;;;-147.17;100.00;50460.16;5012894;28;51185;-71
2022/01/16 10:25:16;;;;;;;;;23.25;19.75;;;;;-147.17;100.00;50466.06;5019189;28;51114;-70
2022/01/16 10:27:45;;;;;;;;;21.00;19.75;;;;;-147.17;100.00;50479.84;5019877;28;51025;-71
2022/01/16 10:30:14;;;;;;;;;25.50;22.50;;;;;-147.17;100.00;50483.78;5025634;28;51127;-67
2022/01/16 10:32:44;;;;;;;;;20.50;18.00;;;;;-147.17;100.00;50473.94;5023505;28;51171;-67
2022/01/16 10:35:23;;;;;;;;;15.00;15.00;;;;;-147.17;100.00;50462.13;5025010;28;51190;-68
2022/01/16 10:37:52;;;;;;;;;22.25;20.00;;;;;-147.17;100.00;50470.00;5018492;28;51082;-68
2022/01/16 10:40:31;;;;;;;;;23.25;21.25;;;;;-147.17;100.00;50464.09;5024878;28;52000;-68
2022/01/16 10:42:58;;;;;;;;;26.00;22.75;;;;;-147.17;100.00;50470.00;5019650;28;51241;-67
2022/01/16 10:45:29;;;;;;;;;27.00;24.50;;;;;-147.17;100.00;50454.25;5018555;28;51082;-68
2022/01/16 10:48:02;;;;;;;;;23.75;22.50;;;;;-147.17;100.00;50475.91;5018184;28;50956;-67
2022/01/16 10:50:30;;;;;;;;;26.00;24.00;;;;;-147.17;100.00;50440.47;5019390;28;52982;-68
2022/01/16 10:53:08;;;;;;;;;22.75;20.25;;;;;-147.17;100.00;50442.44;5030441;28;51228;-67
2022/01/16 10:55:41;;;;;;;;;28.25;24.50;;;;;-147.17;100.00;50468.03;5028057;28;51122;-67
2022/01/16 10:58:13;;;;;;;;;29.75;25.25;;;;;-147.17;100.00;50462.13;5028832;28;51461;-67
2022/01/16 11:01:00;;;;;;;;;25.75;24.00;;;;;-147.17;100.00;50481.81;5021342;28;52260;-70
2022/01/16 11:03:27;;;;;;;;;25.75;23.75;;;;;-147.17;100.00;50458.19;5032895;28;51106;-67
2022/01/16 11:05:54;;;;;;;;;23.75;23.50;;;;;-147.17;100.00;50442.44;5031493;28;51078;-67
2022/01/16 11:08:25;;;;;;;;;23.75;22.75;;;;;-147.17;100.00;50452.28;5001658;28;51337;-67
2022/01/16 11:10:56;;;;;;;;;24.50;23.75;;;;;-147.17;100.00;50450.31;5021471;28;52243;-66
2022/01/16 11:13:27;;;;;;;;;28.75;25.50;;;;;-147.17;100.00;50442.44;5018096;28;51221;-66
2022/01/16 11:15:55;;;;;;;;;27.00;23.50;;;;;-147.17;100.00;50458.19;5023947;28;51216;-67
2022/01/16 11:18:22;;;;;;;;;24.00;23.00;;;;;-147.17;100.00;50471.97;5013376;28;50939;-65
2022/01/16 11:21:07;;;;;;;;;25.50;21.50;;;;;-147.17;100.00;50473.94;5019669;28;52190;-66
2022/01/16 11:23:47;;;;;;;;;24.00;23.75;;;;;-147.17;100.00;50507.41;5012619;28;51126;-65
2022/01/16 11:26:15;;;;;;;;;25.50;25.50;;;;;-147.17;100.00;50487.72;5015571;28;51161;-66
2022/01/16 11:28:41;;;;;;;;;28.00;26.75;;;;;-147.17;100.00;50481.81;5025302;28;51020;-67
2022/01/16 11:31:10;;;;;;;;;27.50;27.00;;;;;-147.17;100.00;50471.97;5022671;28;52631;-66
2022/01/16 11:33:37;;;;;;;;;23.25;22.50;;;;;-147.17;100.00;50450.31;5019567;28;51210;-67
2022/01/16 11:36:20;;;;;;;;;26.75;24.75;;;;;-147.17;100.00;50442.44;5020393;28;51188;-66